• Join FlightAware (Why Join?)
  • Login
  • US Flag 
12:18AM EST


 

Airport Tracker/Info


-or-


 

Live Flight TrackerFlight Track Log ✈ EJA122 ✈ 19-Sep-2013 ✈ KFDY - CYYZ

Flight Track Log - Related Links

Times and Time Zones

All times are in EDT time to prevent confusion due to time zone crossing. See the EJA122 flight status page for this flight to view local times or setup timezone preferences in your user account.

Time Position Orientation Groundspeed Altitude Reporting Facility
EDT Latitude Longitude Course Direction KTS MPH feet Rate Location/Type
06:55PM 40.9803 -83.6617 69° East 172 198 27,000  Level Cleveland Center
06:56PM 40.9994 -83.5939 69° East 196 226 4,700 -9,540 Descending Cleveland Center
06:57PM 41.0222 -83.4883 74° East 254 292 7,300 2,340 Climbing Cleveland Center
06:58PM 41.0494 -83.3814 71° East 300 345 9,600 2,160 Climbing Cleveland Center
06:59PM 41.0800 -83.2647 71° East 329 379 11,800 2,160 Climbing Cleveland Center
07:00PM 41.1125 -83.1375 71° East 343 395 14,100 1,980 Climbing Cleveland Center
07:01PM 41.1439 -83.0136 71° East 353 406 15,900 1,560 Climbing Cleveland Center
07:02PM 41.1778 -82.8844 71° East 365 420 17,400 1,380 Climbing Cleveland Center
07:03PM 41.2100 -82.7511 72° East 373 429 18,800 1,500 Climbing Cleveland Center
07:04PM 41.2492 -82.5967 71° East 376 433 20,600 1,500 Climbing Cleveland Center
07:05PM 41.2917 -82.4711 66° East 371 427 22,000 1,380 Climbing Cleveland Center
07:06PM 41.3714 -82.3928 36° Northeast 351 404 23,500 1,380 Climbing Cleveland Center
07:07PM 41.4558 -82.3319 28° Northeast 341 392 24,900 1,200 Climbing Cleveland Center
07:08PM 41.5392 -82.2717 28° Northeast 337 388 26,100 960 Climbing Cleveland Center
07:09PM 41.6228 -82.2117 28° Northeast 336 387 27,000 420 Climbing Cleveland Center
07:10PM 41.7225 -82.1381 29° Northeast 366 421 27,000  Level Cleveland Center
07:11PM 41.8092 -82.0739 29° Northeast 387 445 27,000  Level Cleveland Center
07:12PM 41.9094 -81.9997 29° Northeast 403 464 27,000  Level Cleveland Center
07:13PM 42.0278 -81.9114 29° Northeast 411 473 27,000  Level Cleveland Center
07:14PM 42.1300 -81.8364 29° Northeast 413 475 27,000  Level Cleveland Center
07:15PM 42.2336 -81.7586 29° Northeast 419 482 27,000  Level Cleveland Center
07:16PM 42.3386 -81.6800 29° Northeast 425 489 27,000  Level Cleveland Center
07:17PM 42.4450 -81.6011 29° Northeast 429 494 27,000  Level Cleveland Center
07:18PM 42.5511 -81.5208 29° Northeast 431 496 27,000  Level Cleveland Center
07:19PM 42.6525 -81.4275 34° Northeast 434 499 27,000  Level Cleveland Center
07:20PM 42.7419 -81.3108 44° Northeast 439 505 27,000 -780 Level Cleveland Center
07:23PM 42.9500 -81.0000 48° Northeast 450 518 24,500 -1,200 Descending Toronto Center
07:24PM 43.0333 -80.8833 46° Northeast 440 506 23,000 -1,800 Descending Toronto Center
07:25PM 43.1500 -80.7833 32° Northeast 430 495 21,000 -1,920 Descending Toronto Center
07:26PM 43.2167 -80.6667 52° Northeast 430 495 19,200 -1,680 Descending Toronto Center
07:27PM 43.3000 -80.5667 41° Northeast 410 472 17,700 -1,500 Descending Toronto Center
07:28PM 43.3833 -80.4667 41° Northeast 390 449 16,300 -1,380 Descending Toronto Center
07:29PM 43.4500 -80.3667 47° Northeast 340 391 15,000 -1,260 Descending Toronto Center
07:30PM 43.4833 -80.2500 68° East 320 368 13,800 -1,200 Descending Toronto Center
07:31PM 43.5167 -80.1333 68° East 320 368 12,600 -1,320 Descending Toronto Center
07:32PM 43.5500 -80.0167 68° East 320 368 11,200 -900 Descending Toronto Center
07:33PM 43.6000 -79.9333 50° Northeast 310 357 10,800 -960 Descending Toronto Center
07:34PM 43.6500 -79.8333 55° Northeast 300 345 9,300 -1,440 Descending Toronto Center
07:35PM 43.7000 -79.7667 44° Northeast 270 311 8,000 -1,080 Descending Toronto Center
07:36PM 43.7500 -79.7000 44° Northeast 260 299 7,200 -1,020 Descending Toronto Center
07:37PM 43.8000 -79.6333 44° Northeast 260 299 6,000 -1,020 Descending Toronto Center
07:38PM 43.8333 -79.5667 55° Northeast 250 288 5,200 -1,200 Descending Toronto Center
07:39PM 43.8000 -79.5000 125° Southeast 220 253 3,600 -1,260 Descending Toronto Center
07:40PM 43.7500 -79.5167 194° South 170 196 2,700 -900 Descending Toronto Center
07:41PM 43.7333 -79.5667 245° Southwest 160 184 1,800 -900 Descending Toronto Center
07:42PM 43.7000 -79.5833 200° South 140 161 1,000 -660 Descending Toronto Center
07:43PM 43.6833 -79.6333 245° Southwest 120 138 500 -300 Descending Toronto Center
07:44PM 43.6667 -79.6333 180° South 20 23 500  Level Toronto Center
07:45PM 43.6833 -79.6333 360° North 20 23 500  Level Toronto Center
07:46PM 43.6833 -79.6167 90° East 20 23 600  Climbing Toronto Center
07:47PM 43.6667 -79.6167 180° South 20 23 600  Level Toronto Center